Fields Landing, California
Current Conditions -  °F | °C
As of 3:10 PM on Saturday 25 Oct 2014 (Local Time) from KFOT Reporting Station
Broken Clouds Broken Clouds  
Wind Chill: 59°   Ceiling: 6000
Heat Index: 59°   Visibility: 10mi
Dew Point: 54°   Wind: 14mph
Humidity: 82%   Direction: 280°W
Pressure: 29.97"   Gusts: 21mph
Location:  40.72°N, 124.22°W
Report Text: KFOT 252210Z AUTO 28012G18KT 10SM FEW021 BKN060 15/12 A2997 RMK AO1
Loading
Personal Weather Stations






























Interactive Weather Map
Tropical Storm Tracking
New forecast layout! Learn more

10-Day Weather Forecast

Advertisements
Track Severe Weather on mobile